sensor_id;sensor_type;location;lat;lon;timestamp;temperature;humidity
31129;DHT22;17777;48.770;8.944;2023-07-08T00:00:47;27.70;29.10
31129;DHT22;17777;48.770;8.944;2023-07-08T00:03:14;27.70;28.90
31129;DHT22;17777;48.770;8.944;2023-07-08T00:05:40;27.60;29.00
31129;DHT22;17777;48.770;8.944;2023-07-08T00:08:14;27.60;29.10
31129;DHT22;17777;48.770;8.944;2023-07-08T00:10:40;27.50;29.60
31129;DHT22;17777;48.770;8.944;2023-07-08T00:13:07;27.40;29.20
31129;DHT22;17777;48.770;8.944;2023-07-08T00:15:34;27.40;29.50
31129;DHT22;17777;48.770;8.944;2023-07-08T00:18:24;27.40;29.50
31129;DHT22;17777;48.770;8.944;2023-07-08T00:20:50;27.30;29.60
31129;DHT22;17777;48.770;8.944;2023-07-08T00:23:16;27.30;29.50
31129;DHT22;17777;48.770;8.944;2023-07-08T00:25:42;27.20;29.60
31129;DHT22;17777;48.770;8.944;2023-07-08T00:28:14;27.20;29.70
31129;DHT22;17777;48.770;8.944;2023-07-08T00:30:42;27.10;30.10
31129;DHT22;17777;48.770;8.944;2023-07-08T00:33:08;27.10;29.90
31129;DHT22;17777;48.770;8.944;2023-07-08T00:35:36;27.10;30.00
31129;DHT22;17777;48.770;8.944;2023-07-08T00:38:24;27.00;30.10
31129;DHT22;17777;48.770;8.944;2023-07-08T00:41:09;27.00;30.80
31129;DHT22;17777;48.770;8.944;2023-07-08T00:43:55;27.00;30.90
31129;DHT22;17777;48.770;8.944;2023-07-08T00:46:31;26.90;30.90
31129;DHT22;17777;48.770;8.944;2023-07-08T00:49:26;26.90;30.90
31129;DHT22;17777;48.770;8.944;2023-07-08T00:55:15;26.80;31.20
31129;DHT22;17777;48.770;8.944;2023-07-08T00:57:44;26.80;30.70
31129;DHT22;17777;48.770;8.944;2023-07-08T01:00:13;26.70;31.20
31129;DHT22;17777;48.770;8.944;2023-07-08T01:02:46;26.60;30.80
31129;DHT22;17777;48.770;8.944;2023-07-08T01:05:17;26.60;31.10
31129;DHT22;17777;48.770;8.944;2023-07-08T01:07:51;26.60;31.10
31129;DHT22;17777;48.770;8.944;2023-07-08T01:10:25;26.50;31.20
31129;DHT22;17777;48.770;8.944;2023-07-08T01:12:56;26.50;31.10
31129;DHT22;17777;48.770;8.944;2023-07-08T01:15:31;26.40;30.90
31129;DHT22;17777;48.770;8.944;2023-07-08T01:18:01;26.40;31.20
31129;DHT22;17777;48.770;8.944;2023-07-08T01:20:27;26.30;30.90
31129;DHT22;17777;48.770;8.944;2023-07-08T01:22:54;26.30;31.00
31129;DHT22;17777;48.770;8.944;2023-07-08T01:25:19;26.30;31.10
31129;DHT22;17777;48.770;8.944;2023-07-08T01:27:49;26.20;31.10
31129;DHT22;17777;48.770;8.944;2023-07-08T01:30:19;26.20;31.30
31129;DHT22;17777;48.770;8.944;2023-07-08T01:32:48;26.10;31.20
31129;DHT22;17777;48.770;8.944;2023-07-08T01:35:16;26.10;31.60
31129;DHT22;17777;48.770;8.944;2023-07-08T01:37:58;26.10;31.40
31129;DHT22;17777;48.770;8.944;2023-07-08T01:40:32;26.00;32.20
31129;DHT22;17777;48.770;8.944;2023-07-08T01:43:00;26.00;32.00
31129;DHT22;17777;48.770;8.944;2023-07-08T01:45:31;26.00;31.60
31129;DHT22;17777;48.770;8.944;2023-07-08T01:48:05;25.90;31.70
31129;DHT22;17777;48.770;8.944;2023-07-08T01:50:54;25.90;31.80
31129;DHT22;17777;48.770;8.944;2023-07-08T01:53:33;25.80;32.00
31129;DHT22;17777;48.770;8.944;2023-07-08T01:56:00;25.70;32.20
31129;DHT22;17777;48.770;8.944;2023-07-08T01:58:27;25.70;31.70
31129;DHT22;17777;48.770;8.944;2023-07-08T02:00:54;25.70;31.80
31129;DHT22;17777;48.770;8.944;2023-07-08T02:03:22;25.60;31.90
31129;DHT22;17777;48.770;8.944;2023-07-08T02:05:48;25.60;32.00
31129;DHT22;17777;48.770;8.944;2023-07-08T02:08:14;25.50;32.00
31129;DHT22;17777;48.770;8.944;2023-07-08T02:10:42;25.50;32.10
31129;DHT22;17777;48.770;8.944;2023-07-08T02:13:09;25.40;32.20
31129;DHT22;17777;48.770;8.944;2023-07-08T02:15:34;25.40;32.30
31129;DHT22;17777;48.770;8.944;2023-07-08T02:18:00;25.40;32.40
31129;DHT22;17777;48.770;8.944;2023-07-08T02:20:26;25.40;32.50
31129;DHT22;17777;48.770;8.944;2023-07-08T02:22:52;25.30;32.50
31129;DHT22;17777;48.770;8.944;2023-07-08T02:25:18;25.30;32.60
31129;DHT22;17777;48.770;8.944;2023-07-08T02:27:44;25.30;32.70
31129;DHT22;17777;48.770;8.944;2023-07-08T02:30:10;25.20;32.80
31129;DHT22;17777;48.770;8.944;2023-07-08T02:32:37;25.20;32.90
31129;DHT22;17777;48.770;8.944;2023-07-08T02:35:07;25.20;33.00
31129;DHT22;17777;48.770;8.944;2023-07-08T02:37:34;25.20;33.10
31129;DHT22;17777;48.770;8.944;2023-07-08T02:40:00;25.10;33.10
31129;DHT22;17777;48.770;8.944;2023-07-08T02:42:26;25.10;33.30
31129;DHT22;17777;48.770;8.944;2023-07-08T02:44:52;25.10;33.30
31129;DHT22;17777;48.770;8.944;2023-07-08T02:47:18;25.10;33.50
31129;DHT22;17777;48.770;8.944;2023-07-08T02:49:44;25.00;33.50
31129;DHT22;17777;48.770;8.944;2023-07-08T02:52:11;25.00;33.60
31129;DHT22;17777;48.770;8.944;2023-07-08T02:54:37;25.00;33.60
31129;DHT22;17777;48.770;8.944;2023-07-08T02:57:03;25.00;33.60
31129;DHT22;17777;48.770;8.944;2023-07-08T02:59:29;25.00;33.60
31129;DHT22;17777;48.770;8.944;2023-07-08T03:01:54;25.00;33.70
31129;DHT22;17777;48.770;8.944;2023-07-08T03:04:20;24.90;33.70
31129;DHT22;17777;48.770;8.944;2023-07-08T03:06:49;24.90;33.90
31129;DHT22;17777;48.770;8.944;2023-07-08T03:09:16;24.90;33.90
31129;DHT22;17777;48.770;8.944;2023-07-08T03:11:43;24.90;33.90
31129;DHT22;17777;48.770;8.944;2023-07-08T03:14:09;24.80;33.90
31129;DHT22;17777;48.770;8.944;2023-07-08T03:16:35;24.80;33.90
31129;DHT22;17777;48.770;8.944;2023-07-08T03:19:00;24.80;34.00
31129;DHT22;17777;48.770;8.944;2023-07-08T03:21:27;24.80;33.80
31129;DHT22;17777;48.770;8.944;2023-07-08T03:23:53;24.70;33.70
31129;DHT22;17777;48.770;8.944;2023-07-08T03:26:24;24.70;33.90
31129;DHT22;17777;48.770;8.944;2023-07-08T03:28:52;24.70;34.20
31129;DHT22;17777;48.770;8.944;2023-07-08T03:31:19;24.70;33.90
31129;DHT22;17777;48.770;8.944;2023-07-08T03:33:45;24.60;33.80
31129;DHT22;17777;48.770;8.944;2023-07-08T03:36:14;24.60;34.00
31129;DHT22;17777;48.770;8.944;2023-07-08T03:38:53;24.60;34.10
31129;DHT22;17777;48.770;8.944;2023-07-08T03:41:21;24.60;34.10
31129;DHT22;17777;48.770;8.944;2023-07-08T03:43:48;24.60;34.20
31129;DHT22;17777;48.770;8.944;2023-07-08T03:46:17;24.60;34.20
31129;DHT22;17777;48.770;8.944;2023-07-08T03:48:44;24.60;34.40
31129;DHT22;17777;48.770;8.944;2023-07-08T03:51:25;24.50;34.40
31129;DHT22;17777;48.770;8.944;2023-07-08T03:53:52;24.60;34.70
31129;DHT22;17777;48.770;8.944;2023-07-08T03:56:19;24.60;34.50
31129;DHT22;17777;48.770;8.944;2023-07-08T03:58:45;24.50;34.50
31129;DHT22;17777;48.770;8.944;2023-07-08T04:01:20;24.50;34.60
31129;DHT22;17777;48.770;8.944;2023-07-08T04:03:54;24.50;35.20
31129;DHT22;17777;48.770;8.944;2023-07-08T04:06:21;24.50;34.80
31129;DHT22;17777;48.770;8.944;2023-07-08T04:08:48;24.50;34.80
31129;DHT22;17777;48.770;8.944;2023-07-08T04:11:16;24.50;35.00
31129;DHT22;17777;48.770;8.944;2023-07-08T04:13:43;24.50;35.10
31129;DHT22;17777;48.770;8.944;2023-07-08T04:16:17;24.50;35.10
31129;DHT22;17777;48.770;8.944;2023-07-08T04:18:45;24.50;35.60
31129;DHT22;17777;48.770;8.944;2023-07-08T04:21:11;24.60;35.20
31129;DHT22;17777;48.770;8.944;2023-07-08T04:23:37;24.60;35.30
31129;DHT22;17777;48.770;8.944;2023-07-08T04:26:02;24.60;35.50
31129;DHT22;17777;48.770;8.944;2023-07-08T04:28:28;24.60;35.60
31129;DHT22;17777;48.770;8.944;2023-07-08T04:30:54;24.60;35.70
31129;DHT22;17777;48.770;8.944;2023-07-08T04:33:20;24.60;35.70
31129;DHT22;17777;48.770;8.944;2023-07-08T04:35:46;24.60;35.90
31129;DHT22;17777;48.770;8.944;2023-07-08T04:38:23;24.60;36.00
31129;DHT22;17777;48.770;8.944;2023-07-08T04:40:51;24.60;36.70
31129;DHT22;17777;48.770;8.944;2023-07-08T04:43:18;24.70;36.20
31129;DHT22;17777;48.770;8.944;2023-07-08T04:45:48;24.70;36.20
31129;DHT22;17777;48.770;8.944;2023-07-08T04:48:19;24.70;36.30
31129;DHT22;17777;48.770;8.944;2023-07-08T04:50:51;24.70;36.20
31129;DHT22;17777;48.770;8.944;2023-07-08T04:53:18;24.70;36.20
31129;DHT22;17777;48.770;8.944;2023-07-08T04:55:47;24.70;36.50
31129;DHT22;17777;48.770;8.944;2023-07-08T04:58:15;24.70;36.80
31129;DHT22;17777;48.770;8.944;2023-07-08T05:00:41;24.80;36.90
31129;DHT22;17777;48.770;8.944;2023-07-08T05:03:07;24.70;36.90
31129;DHT22;17777;48.770;8.944;2023-07-08T05:05:32;24.80;37.00
31129;DHT22;17777;48.770;8.944;2023-07-08T05:07:58;24.80;36.90
31129;DHT22;17777;48.770;8.944;2023-07-08T05:10:24;24.80;36.90
31129;DHT22;17777;48.770;8.944;2023-07-08T05:12:50;24.80;36.80
31129;DHT22;17777;48.770;8.944;2023-07-08T05:15:16;24.80;36.80
31129;DHT22;17777;48.770;8.944;2023-07-08T05:17:42;24.90;37.00
31129;DHT22;17777;48.770;8.944;2023-07-08T05:20:10;24.90;37.00
31129;DHT22;17777;48.770;8.944;2023-07-08T05:22:38;24.90;37.10
31129;DHT22;17777;48.770;8.944;2023-07-08T05:25:04;24.90;37.00
31129;DHT22;17777;48.770;8.944;2023-07-08T05:27:31;25.00;37.00
31129;DHT22;17777;48.770;8.944;2023-07-08T05:30:01;25.00;37.00
31129;DHT22;17777;48.770;8.944;2023-07-08T05:32:27;25.00;37.00
31129;DHT22;17777;48.770;8.944;2023-07-08T05:34:53;25.10;37.00
31129;DHT22;17777;48.770;8.944;2023-07-08T05:37:20;25.10;36.90
31129;DHT22;17777;48.770;8.944;2023-07-08T05:39:51;25.20;36.90
31129;DHT22;17777;48.770;8.944;2023-07-08T05:42:19;25.20;36.80
31129;DHT22;17777;48.770;8.944;2023-07-08T05:44:46;25.30;36.80
31129;DHT22;17777;48.770;8.944;2023-07-08T05:47:12;25.40;36.80
31129;DHT22;17777;48.770;8.944;2023-07-08T05:49:38;25.40;36.80
31129;DHT22;17777;48.770;8.944;2023-07-08T05:52:04;25.50;36.70
31129;DHT22;17777;48.770;8.944;2023-07-08T05:54:39;25.60;36.60
31129;DHT22;17777;48.770;8.944;2023-07-08T05:57:07;25.60;37.20
31129;DHT22;17777;48.770;8.944;2023-07-08T05:59:35;25.70;36.60
31129;DHT22;17777;48.770;8.944;2023-07-08T06:02:02;25.80;36.50
31129;DHT22;17777;48.770;8.944;2023-07-08T06:04:28;25.90;36.50
31129;DHT22;17777;48.770;8.944;2023-07-08T06:06:54;25.90;36.30
31129;DHT22;17777;48.770;8.944;2023-07-08T06:09:20;26.00;36.30
31129;DHT22;17777;48.770;8.944;2023-07-08T06:11:45;26.10;36.20
31129;DHT22;17777;48.770;8.944;2023-07-08T06:14:11;26.10;36.10
31129;DHT22;17777;48.770;8.944;2023-07-08T06:16:37;26.20;36.10
31129;DHT22;17777;48.770;8.944;2023-07-08T06:19:03;26.30;36.10
31129;DHT22;17777;48.770;8.944;2023-07-08T06:21:29;26.40;36.10
31129;DHT22;17777;48.770;8.944;2023-07-08T06:23:55;26.50;36.10
31129;DHT22;17777;48.770;8.944;2023-07-08T06:26:20;26.50;36.60
31129;DHT22;17777;48.770;8.944;2023-07-08T06:28:46;26.60;36.00
31129;DHT22;17777;48.770;8.944;2023-07-08T06:31:12;26.70;35.90
31129;DHT22;17777;48.770;8.944;2023-07-08T06:33:38;26.80;35.90
31129;DHT22;17777;48.770;8.944;2023-07-08T06:36:04;26.80;35.70
31129;DHT22;17777;48.770;8.944;2023-07-08T06:38:30;26.90;36.40
31129;DHT22;17777;48.770;8.944;2023-07-08T06:40:55;27.00;35.70
31129;DHT22;17777;48.770;8.944;2023-07-08T06:43:21;27.10;35.70
31129;DHT22;17777;48.770;8.944;2023-07-08T06:45:49;27.10;35.70
31129;DHT22;17777;48.770;8.944;2023-07-08T06:48:15;27.30;35.70
31129;DHT22;17777;48.770;8.944;2023-07-08T06:50:47;27.40;35.70
31129;DHT22;17777;48.770;8.944;2023-07-08T06:53:14;27.50;35.70
31129;DHT22;17777;48.770;8.944;2023-07-08T06:55:40;27.60;35.60
31129;DHT22;17777;48.770;8.944;2023-07-08T06:58:07;27.70;35.60
31129;DHT22;17777;48.770;8.944;2023-07-08T07:00:33;27.80;35.50
31129;DHT22;17777;48.770;8.944;2023-07-08T07:02:58;27.90;35.40
31129;DHT22;17777;48.770;8.944;2023-07-08T07:05:24;28.00;35.30
31129;DHT22;17777;48.770;8.944;2023-07-08T07:07:50;28.00;35.20
31129;DHT22;17777;48.770;8.944;2023-07-08T07:10:18;28.10;35.10
31129;DHT22;17777;48.770;8.944;2023-07-08T07:12:44;28.10;35.10
31129;DHT22;17777;48.770;8.944;2023-07-08T07:15:10;28.20;35.10
31129;DHT22;17777;48.770;8.944;2023-07-08T07:17:36;28.30;35.00
31129;DHT22;17777;48.770;8.944;2023-07-08T07:20:02;28.30;35.00
31129;DHT22;17777;48.770;8.944;2023-07-08T07:22:29;28.40;35.00
31129;DHT22;17777;48.770;8.944;2023-07-08T07:24:55;28.40;35.00
31129;DHT22;17777;48.770;8.944;2023-07-08T07:27:20;28.50;35.00
31129;DHT22;17777;48.770;8.944;2023-07-08T07:29:48;28.50;35.00
31129;DHT22;17777;48.770;8.944;2023-07-08T07:32:16;28.60;35.10
31129;DHT22;17777;48.770;8.944;2023-07-08T07:34:45;28.60;34.90
31129;DHT22;17777;48.770;8.944;2023-07-08T07:37:13;28.60;35.00
31129;DHT22;17777;48.770;8.944;2023-07-08T07:39:40;28.70;35.00
31129;DHT22;17777;48.770;8.944;2023-07-08T07:42:07;28.70;34.90
31129;DHT22;17777;48.770;8.944;2023-07-08T07:44:33;28.70;34.80
31129;DHT22;17777;48.770;8.944;2023-07-08T07:46:59;28.80;34.80
31129;DHT22;17777;48.770;8.944;2023-07-08T07:49:25;28.80;34.80
31129;DHT22;17777;48.770;8.944;2023-07-08T07:51:50;28.90;34.90
31129;DHT22;17777;48.770;8.944;2023-07-08T07:54:16;28.90;34.80
31129;DHT22;17777;48.770;8.944;2023-07-08T07:56:42;29.00;34.80
31129;DHT22;17777;48.770;8.944;2023-07-08T07:59:08;29.00;34.80
31129;DHT22;17777;48.770;8.944;2023-07-08T08:01:35;29.10;34.70
31129;DHT22;17777;48.770;8.944;2023-07-08T08:04:00;29.10;34.70
31129;DHT22;17777;48.770;8.944;2023-07-08T08:06:26;29.20;34.60
31129;DHT22;17777;48.770;8.944;2023-07-08T08:08:52;29.20;34.40
31129;DHT22;17777;48.770;8.944;2023-07-08T08:11:18;29.30;34.50
31129;DHT22;17777;48.770;8.944;2023-07-08T08:13:45;29.40;34.30
31129;DHT22;17777;48.770;8.944;2023-07-08T08:16:11;29.40;34.10
31129;DHT22;17777;48.770;8.944;2023-07-08T08:18:36;29.50;34.00
31129;DHT22;17777;48.770;8.944;2023-07-08T08:21:02;29.60;34.60
31129;DHT22;17777;48.770;8.944;2023-07-08T08:23:28;29.70;34.00
31129;DHT22;17777;48.770;8.944;2023-07-08T08:25:54;29.70;33.70
31129;DHT22;17777;48.770;8.944;2023-07-08T08:28:20;29.80;33.80
31129;DHT22;17777;48.770;8.944;2023-07-08T08:30:47;29.90;33.80
31129;DHT22;17777;48.770;8.944;2023-07-08T08:33:14;29.90;33.60
31129;DHT22;17777;48.770;8.944;2023-07-08T08:35:42;30.00;33.50
31129;DHT22;17777;48.770;8.944;2023-07-08T08:38:08;30.10;33.20
31129;DHT22;17777;48.770;8.944;2023-07-08T08:40:34;30.20;33.30
31129;DHT22;17777;48.770;8.944;2023-07-08T08:43:13;30.30;33.30
31129;DHT22;17777;48.770;8.944;2023-07-08T08:46:04;30.30;33.00
31129;DHT22;17777;48.770;8.944;2023-07-08T08:48:50;30.40;32.80
31129;DHT22;17777;48.770;8.944;2023-07-08T08:51:19;30.50;32.50
31129;DHT22;17777;48.770;8.944;2023-07-08T08:53:45;30.60;32.70
31129;DHT22;17777;48.770;8.944;2023-07-08T08:56:20;30.70;32.70
31129;DHT22;17777;48.770;8.944;2023-07-08T08:59:23;30.80;32.30
31129;DHT22;17777;48.770;8.944;2023-07-08T09:01:53;30.80;32.10
31129;DHT22;17777;48.770;8.944;2023-07-08T09:04:25;30.90;32.40
31129;DHT22;17777;48.770;8.944;2023-07-08T09:07:06;31.00;32.30
31129;DHT22;17777;48.770;8.944;2023-07-08T09:09:38;31.00;31.60
31129;DHT22;17777;48.770;8.944;2023-07-08T09:12:18;31.10;31.70
31129;DHT22;17777;48.770;8.944;2023-07-08T09:14:47;31.10;31.60
31129;DHT22;17777;48.770;8.944;2023-07-08T09:17:23;31.20;31.90
31129;DHT22;17777;48.770;8.944;2023-07-08T09:22:51;31.30;31.60
31129;DHT22;17777;48.770;8.944;2023-07-08T09:25:32;31.40;31.80
31129;DHT22;17777;48.770;8.944;2023-07-08T09:28:01;31.50;31.80
31129;DHT22;17777;48.770;8.944;2023-07-08T09:30:27;31.60;31.90
31129;DHT22;17777;48.770;8.944;2023-07-08T09:32:56;31.60;31.80
31129;DHT22;17777;48.770;8.944;2023-07-08T09:35:38;31.70;31.80
31129;DHT22;17777;48.770;8.944;2023-07-08T09:38:07;31.80;31.50
31129;DHT22;17777;48.770;8.944;2023-07-08T09:40:35;31.90;31.80
31129;DHT22;17777;48.770;8.944;2023-07-08T09:45:47;32.00;31.20
31129;DHT22;17777;48.770;8.944;2023-07-08T09:48:27;32.10;31.60
31129;DHT22;17777;48.770;8.944;2023-07-08T09:50:56;32.10;31.40
31129;DHT22;17777;48.770;8.944;2023-07-08T09:53:23;32.20;31.40
31129;DHT22;17777;48.770;8.944;2023-07-08T09:55:50;32.20;31.40
31129;DHT22;17777;48.770;8.944;2023-07-08T09:58:30;32.30;31.20
31129;DHT22;17777;48.770;8.944;2023-07-08T10:01:02;32.30;30.70
31129;DHT22;17777;48.770;8.944;2023-07-08T10:03:35;32.40;31.00
31129;DHT22;17777;48.770;8.944;2023-07-08T10:06:10;32.40;30.60
31129;DHT22;17777;48.770;8.944;2023-07-08T10:08:43;32.50;30.40
31129;DHT22;17777;48.770;8.944;2023-07-08T10:13:49;32.60;30.30
31129;DHT22;17777;48.770;8.944;2023-07-08T10:16:28;32.70;30.30
31129;DHT22;17777;48.770;8.944;2023-07-08T10:18:56;32.70;30.10
31129;DHT22;17777;48.770;8.944;2023-07-08T10:21:51;32.70;30.40
31129;DHT22;17777;48.770;8.944;2023-07-08T10:30:14;32.70;30.00
31129;DHT22;17777;48.770;8.944;2023-07-08T10:35:54;32.70;30.10
31129;DHT22;17777;48.770;8.944;2023-07-08T10:39:17;32.80;30.00
31129;DHT22;17777;48.770;8.944;2023-07-08T10:42:17;32.90;29.90
31129;DHT22;17777;48.770;8.944;2023-07-08T10:45:23;33.00;30.00
31129;DHT22;17777;48.770;8.944;2023-07-08T10:48:17;33.00;29.90
31129;DHT22;17777;48.770;8.944;2023-07-08T10:54:02;33.20;29.60
31129;DHT22;17777;48.770;8.944;2023-07-08T10:56:54;33.20;29.60
31129;DHT22;17777;48.770;8.944;2023-07-08T10:59:38;33.30;29.40
31129;DHT22;17777;48.770;8.944;2023-07-08T11:07:40;33.50;29.10
31129;DHT22;17777;48.770;8.944;2023-07-08T11:10:49;33.60;29.30
31129;DHT22;17777;48.770;8.944;2023-07-08T11:13:20;33.70;28.60
31129;DHT22;17777;48.770;8.944;2023-07-08T11:15:59;33.80;28.60
31129;DHT22;17777;48.770;8.944;2023-07-08T11:21:31;33.90;28.60
31129;DHT22;17777;48.770;8.944;2023-07-08T11:24:24;34.00;28.70
31129;DHT22;17777;48.770;8.944;2023-07-08T11:26:58;34.00;28.60
31129;DHT22;17777;48.770;8.944;2023-07-08T11:29:42;34.10;28.60
31129;DHT22;17777;48.770;8.944;2023-07-08T11:32:17;34.10;28.20
31129;DHT22;17777;48.770;8.944;2023-07-08T11:34:47;34.20;28.30
31129;DHT22;17777;48.770;8.944;2023-07-08T11:37:15;34.20;28.40
31129;DHT22;17777;48.770;8.944;2023-07-08T11:39:45;34.30;28.40
31129;DHT22;17777;48.770;8.944;2023-07-08T11:42:23;34.30;28.40
31129;DHT22;17777;48.770;8.944;2023-07-08T11:44:53;34.40;27.80
31129;DHT22;17777;48.770;8.944;2023-07-08T11:47:41;34.50;28.20
31129;DHT22;17777;48.770;8.944;2023-07-08T11:50:29;34.50;27.70
31129;DHT22;17777;48.770;8.944;2023-07-08T11:53:02;34.50;27.40
31129;DHT22;17777;48.770;8.944;2023-07-08T11:58:21;34.60;27.60
31129;DHT22;17777;48.770;8.944;2023-07-08T12:01:03;34.70;27.60
31129;DHT22;17777;48.770;8.944;2023-07-08T12:03:39;34.70;27.50
31129;DHT22;17777;48.770;8.944;2023-07-08T12:08:59;34.80;27.30
31129;DHT22;17777;48.770;8.944;2023-07-08T12:11:34;34.90;27.40
31129;DHT22;17777;48.770;8.944;2023-07-08T12:14:02;34.90;27.10
31129;DHT22;17777;48.770;8.944;2023-07-08T12:16:31;35.00;27.50
31129;DHT22;17777;48.770;8.944;2023-07-08T12:19:01;35.10;27.40
31129;DHT22;17777;48.770;8.944;2023-07-08T12:21:30;35.10;27.10
31129;DHT22;17777;48.770;8.944;2023-07-08T12:24:04;35.10;27.30
31129;DHT22;17777;48.770;8.944;2023-07-08T12:26:32;35.20;27.00
31129;DHT22;17777;48.770;8.944;2023-07-08T12:28:59;35.20;27.10
31129;DHT22;17777;48.770;8.944;2023-07-08T12:31:25;35.20;27.00
31129;DHT22;17777;48.770;8.944;2023-07-08T12:33:51;35.30;26.90
31129;DHT22;17777;48.770;8.944;2023-07-08T12:36:22;35.30;26.90
31129;DHT22;17777;48.770;8.944;2023-07-08T12:38:56;35.40;26.80
31129;DHT22;17777;48.770;8.944;2023-07-08T12:41:32;35.30;26.80
31129;DHT22;17777;48.770;8.944;2023-07-08T12:44:00;35.40;26.60
31129;DHT22;17777;48.770;8.944;2023-07-08T12:46:28;35.40;26.90
31129;DHT22;17777;48.770;8.944;2023-07-08T12:48:54;35.40;26.90
31129;DHT22;17777;48.770;8.944;2023-07-08T12:51:23;35.50;26.80
31129;DHT22;17777;48.770;8.944;2023-07-08T12:53:51;35.50;26.60
31129;DHT22;17777;48.770;8.944;2023-07-08T12:56:20;35.40;26.70
31129;DHT22;17777;48.770;8.944;2023-07-08T12:58:50;35.50;26.70
31129;DHT22;17777;48.770;8.944;2023-07-08T13:01:29;35.50;26.60
31129;DHT22;17777;48.770;8.944;2023-07-08T13:04:00;35.50;26.60
31129;DHT22;17777;48.770;8.944;2023-07-08T13:06:30;35.50;26.60
31129;DHT22;17777;48.770;8.944;2023-07-08T13:09:01;35.50;26.70
31129;DHT22;17777;48.770;8.944;2023-07-08T13:11:31;35.50;26.70
31129;DHT22;17777;48.770;8.944;2023-07-08T13:14:00;35.50;26.70
31129;DHT22;17777;48.770;8.944;2023-07-08T13:16:33;35.60;26.60
31129;DHT22;17777;48.770;8.944;2023-07-08T13:19:00;35.60;26.60
31129;DHT22;17777;48.770;8.944;2023-07-08T13:21:26;35.60;26.80
31129;DHT22;17777;48.770;8.944;2023-07-08T13:23:56;35.70;26.70
31129;DHT22;17777;48.770;8.944;2023-07-08T13:26:26;35.70;26.50
31129;DHT22;17777;48.770;8.944;2023-07-08T13:29:04;35.80;26.60
31129;DHT22;17777;48.770;8.944;2023-07-08T13:31:38;35.80;26.40
31129;DHT22;17777;48.770;8.944;2023-07-08T13:34:09;35.90;26.50
31129;DHT22;17777;48.770;8.944;2023-07-08T13:36:42;35.90;26.40
31129;DHT22;17777;48.770;8.944;2023-07-08T13:39:15;36.00;26.50
31129;DHT22;17777;48.770;8.944;2023-07-08T13:41:46;36.10;26.30
31129;DHT22;17777;48.770;8.944;2023-07-08T13:44:12;36.30;26.70
31129;DHT22;17777;48.770;8.944;2023-07-08T13:46:43;36.60;26.80
31129;DHT22;17777;48.770;8.944;2023-07-08T13:52:06;37.50;27.40
31129;DHT22;17777;48.770;8.944;2023-07-08T13:54:38;38.10;26.60
31129;DHT22;17777;48.770;8.944;2023-07-08T13:57:10;38.70;26.30
31129;DHT22;17777;48.770;8.944;2023-07-08T13:59:37;39.20;25.60
31129;DHT22;17777;48.770;8.944;2023-07-08T14:02:20;39.60;25.30
31129;DHT22;17777;48.770;8.944;2023-07-08T14:04:49;39.90;24.30
31129;DHT22;17777;48.770;8.944;2023-07-08T14:07:24;40.10;24.40
31129;DHT22;17777;48.770;8.944;2023-07-08T14:09:55;40.20;23.60
31129;DHT22;17777;48.770;8.944;2023-07-08T14:12:22;40.20;23.80
31129;DHT22;17777;48.770;8.944;2023-07-08T14:14:48;40.10;23.40
31129;DHT22;17777;48.770;8.944;2023-07-08T14:17:33;40.10;23.30
31129;DHT22;17777;48.770;8.944;2023-07-08T14:19:58;39.90;22.80
31129;DHT22;17777;48.770;8.944;2023-07-08T14:22:26;39.80;23.10
31129;DHT22;17777;48.770;8.944;2023-07-08T14:24:55;39.60;23.20
31129;DHT22;17777;48.770;8.944;2023-07-08T14:27:21;39.40;23.20
31129;DHT22;17777;48.770;8.944;2023-07-08T14:29:49;39.20;23.20
31129;DHT22;17777;48.770;8.944;2023-07-08T14:32:22;39.10;23.40
31129;DHT22;17777;48.770;8.944;2023-07-08T14:34:52;38.90;23.30
31129;DHT22;17777;48.770;8.944;2023-07-08T14:37:21;38.80;23.50
31129;DHT22;17777;48.770;8.944;2023-07-08T14:39:47;38.70;23.50
31129;DHT22;17777;48.770;8.944;2023-07-08T14:42:15;38.50;23.60
31129;DHT22;17777;48.770;8.944;2023-07-08T14:44:49;38.40;23.60
31129;DHT22;17777;48.770;8.944;2023-07-08T14:47:17;38.30;23.50
31129;DHT22;17777;48.770;8.944;2023-07-08T14:49:44;38.20;23.70
31129;DHT22;17777;48.770;8.944;2023-07-08T14:52:10;38.10;23.60
31129;DHT22;17777;48.770;8.944;2023-07-08T14:54:36;38.00;23.60
31129;DHT22;17777;48.770;8.944;2023-07-08T14:57:03;37.90;23.70
31129;DHT22;17777;48.770;8.944;2023-07-08T14:59:32;37.80;23.70
31129;DHT22;17777;48.770;8.944;2023-07-08T15:01:59;37.70;23.70
31129;DHT22;17777;48.770;8.944;2023-07-08T15:04:27;37.60;23.70
31129;DHT22;17777;48.770;8.944;2023-07-08T15:06:54;37.50;23.70
31129;DHT22;17777;48.770;8.944;2023-07-08T15:09:22;37.40;23.90
31129;DHT22;17777;48.770;8.944;2023-07-08T15:11:48;37.30;23.90
31129;DHT22;17777;48.770;8.944;2023-07-08T15:14:25;37.30;24.10
31129;DHT22;17777;48.770;8.944;2023-07-08T15:16:52;37.20;23.90
31129;DHT22;17777;48.770;8.944;2023-07-08T15:19:18;37.10;24.10
31129;DHT22;17777;48.770;8.944;2023-07-08T15:21:45;37.00;24.10
31129;DHT22;17777;48.770;8.944;2023-07-08T15:24:12;37.00;24.20
31129;DHT22;17777;48.770;8.944;2023-07-08T15:26:45;36.90;24.20
31129;DHT22;17777;48.770;8.944;2023-07-08T15:29:22;36.90;24.20
31129;DHT22;17777;48.770;8.944;2023-07-08T15:31:49;36.80;24.20
31129;DHT22;17777;48.770;8.944;2023-07-08T15:34:17;36.80;24.20
31129;DHT22;17777;48.770;8.944;2023-07-08T15:36:44;36.80;24.30
31129;DHT22;17777;48.770;8.944;2023-07-08T15:39:10;36.80;24.30
31129;DHT22;17777;48.770;8.944;2023-07-08T15:41:36;36.70;24.40
31129;DHT22;17777;48.770;8.944;2023-07-08T15:44:04;36.70;24.30
31129;DHT22;17777;48.770;8.944;2023-07-08T15:46:36;36.70;24.30
31129;DHT22;17777;48.770;8.944;2023-07-08T15:49:16;36.70;24.30
31129;DHT22;17777;48.770;8.944;2023-07-08T15:51:48;36.70;24.10
31129;DHT22;17777;48.770;8.944;2023-07-08T15:54:14;36.70;24.20
31129;DHT22;17777;48.770;8.944;2023-07-08T15:56:41;36.70;24.10
31129;DHT22;17777;48.770;8.944;2023-07-08T15:59:14;36.70;24.10
31129;DHT22;17777;48.770;8.944;2023-07-08T16:01:42;36.70;23.80
31129;DHT22;17777;48.770;8.944;2023-07-08T16:04:33;36.70;24.20
31129;DHT22;17777;48.770;8.944;2023-07-08T16:07:00;36.70;24.00
31129;DHT22;17777;48.770;8.944;2023-07-08T16:09:26;36.70;24.20
31129;DHT22;17777;48.770;8.944;2023-07-08T16:11:52;36.60;24.20
31129;DHT22;17777;48.770;8.944;2023-07-08T16:14:18;36.60;24.30
31129;DHT22;17777;48.770;8.944;2023-07-08T16:16:44;36.70;24.30
31129;DHT22;17777;48.770;8.944;2023-07-08T16:19:11;36.70;24.60
31129;DHT22;17777;48.770;8.944;2023-07-08T16:21:38;36.70;24.50
31129;DHT22;17777;48.770;8.944;2023-07-08T16:24:05;36.80;24.50
31129;DHT22;17777;48.770;8.944;2023-07-08T16:26:31;36.80;24.50
31129;DHT22;17777;48.770;8.944;2023-07-08T16:28:57;36.90;24.40